Vicente Aguado — EA4112 — position and weather

sailwx.info

Track history (hours):
 
Tides and Currents Weather Stations Pressure Air Temp Water Temp Dewpoint Dewpoint Depression Visibility Wind Speed Wind Dir Waves Ship Positions

Vicente Aguado

Last reported at 2017-Oct-13 21:09 UTC. Time now 2017-Oct-20 05:23 UTC.
Position N 37°31' W 000°48'.

Length 21 m; draft 2.8 m.

Type: Fishing. MMSI: 224099560.

Date/timePositionNaut miles runAvg speedWind from/ knotsBaromVisibWave heightAir tempDewpointWater temp
2017-Oct-13 21:09N 37°31' W 000°48'9 8.1
2017-Oct-13 20:00N 37°37' W 000°39'5 8.1
2017-Oct-13 19:25N 37°40' W 000°35'3 8.0
2017-Oct-13 19:00N 37°43' W 000°32'13 8.1
2017-Oct-13 17:25N 37°53' W 000°22'3 8.2
2017-Oct-13 17:00N 37°55' W 000°19'4 8.3
2017-Oct-13 16:30N 37°58' W 000°15'4 8.2
2017-Oct-13 16:00N 38°01' W 000°11'4 8.2
2017-Oct-13 15:30N 38°04' W 000°08'6 8.2
2017-Oct-13 14:48N 38°08' W 000°03'5 8.2
2017-Oct-13 14:12N 38°11' E 000°02'24 5.9
2017-Oct-13 10:09N 38°31' E 000°20'1 4.7
2017-Oct-13 09:51N 38°30' E 000°19'4 0.7
2017-Oct-13 03:33N 38°26' E 000°16'0 4.9
2017-Oct-13 03:30N 38°26' E 000°16'2 4.2
2017-Oct-13 02:57N 38°28' E 000°17'6 2.6
2017-Oct-13 00:33N 38°32' E 000°24'1 4.4
2017-Oct-13 00:21N 38°33' E 000°24'1 2.0
2017-Oct-13 00:00N 38°34' E 000°24'  
Track history (hours):
 
Tides and Currents Weather Stations Pressure Air Temp Water Temp Dewpoint Dewpoint Depression Visibility Wind Speed Wind Dir Waves Ship Positions

Vicente Aguado

Last reported at 2017-Oct-13 21:09 UTC. Time now 2017-Oct-20 05:23 UTC.
Position N 37°31' W 000°48'.

Length 21 m; draft 2.8 m.

Type: Fishing. MMSI: 224099560.

Date/timePositionNaut miles runAvg speedWind from/ knotsBaromVisibWave heightAir tempDewpointWater temp
2017-Oct-13 21:09N 37°31' W 000°48'9 8.1
2017-Oct-13 20:00N 37°37' W 000°39'5 8.1
2017-Oct-13 19:25N 37°40' W 000°35'3 8.0
2017-Oct-13 19:00N 37°43' W 000°32'13 8.1
2017-Oct-13 17:25N 37°53' W 000°22'3 8.2
2017-Oct-13 17:00N 37°55' W 000°19'4 8.3
2017-Oct-13 16:30N 37°58' W 000°15'4 8.2
2017-Oct-13 16:00N 38°01' W 000°11'4 8.2
2017-Oct-13 15:30N 38°04' W 000°08'6 8.2
2017-Oct-13 14:48N 38°08' W 000°03'5 8.2
2017-Oct-13 14:12N 38°11' E 000°02'24 5.9
2017-Oct-13 10:09N 38°31' E 000°20'1 4.7
2017-Oct-13 09:51N 38°30' E 000°19'4 0.7
2017-Oct-13 03:33N 38°26' E 000°16'0 4.9
2017-Oct-13 03:30N 38°26' E 000°16'2 4.2
2017-Oct-13 02:57N 38°28' E 000°17'6 2.6
2017-Oct-13 00:33N 38°32' E 000°24'1 4.4
2017-Oct-13 00:21N 38°33' E 000°24'1 2.0
2017-Oct-13 00:00N 38°34' E 000°24'  

Dump ship's entire track history